»·PEaware :: TPX765 KSAN-KLAS

TPX765 :: KSAN-KLAS

FLIGHT INFORMATION

Flight Status: Arrived
Operator: ATP Experience
More flights by this operator :: More flights under this callsign
Pilot: Dave P. (45)
Aircraft: BOEING 737-800
(B738)
More flights by this aircraft type
Origin: KSAN San Diego Intl-Lindbergh
United States
Destination: KLAS McCarran Intl
United States
More flights between these airports :: More routes between these airports
Route: PADRZ2 CHKNN SEBBY YELAH MISEN KEPEC6
File this flight plan on PilotEdge
Remarks: PBN / A1B1C1D1S1S2 DOF / 180623 REG / N738PM OPR / TPX PER / D RMK / TCAS SIMBRIEF
Altitude:
(Current/Filed)
29,000ft
Speed:
(Current/Filed)
462kts
Departed: 23-Jun-18 10:00 AM
Arrived: 23-Jun-18 10:55 AM
Distance/Time
Traveled:
225nm/0:55
Distance/Time
To Go:
Arrived

Flight Plot

Page will automatically refresh every two minutes.

Flight plan parsing failed; only flown route is shown


Map Options




Map Legend


Flown Route
Filed Route
Departure Airport
Arrival Airport
Navaid (VOR, NDB)
Fix

Horizontal Profiles

Position Reports

Time Latitude Longitude Heading Altitude Ground
Speed
23-Jun-18 09:38 32.732864 -117.195490 274 23ft 0kts
23-Jun-18 09:39 32.732864 -117.195490 274 23ft 0kts
23-Jun-18 09:40 32.732864 -117.195490 274 23ft 0kts
23-Jun-18 09:41 32.732864 -117.195490 274 23ft 0kts
23-Jun-18 09:42 32.732864 -117.195490 274 23ft 0kts
23-Jun-18 09:43 32.732864 -117.195490 274 23ft 0kts
23-Jun-18 09:44 32.732864 -117.195490 274 23ft 0kts
23-Jun-18 09:45 32.732864 -117.195490 274 23ft 0kts
23-Jun-18 09:46 32.732864 -117.195490 274 23ft 0kts
23-Jun-18 09:47 32.732864 -117.195490 274 23ft 0kts
23-Jun-18 09:48 32.732864 -117.195490 274 23ft 0kts
23-Jun-18 09:49 32.732864 -117.195490 274 23ft 0kts
23-Jun-18 09:50 32.732845 -117.195317 283 23ft 2kts
23-Jun-18 09:51 32.732641 -117.194935 319 23ft 0kts
23-Jun-18 09:52 32.732641 -117.194935 319 23ft 0kts
23-Jun-18 09:53 32.732911 -117.194728 52 23ft 7kts
23-Jun-18 09:54 32.732985 -117.194613 52 23ft 0kts
23-Jun-18 09:55 32.733122 -117.192152 105 23ft 15kts
23-Jun-18 09:56 32.731727 -117.186389 106 23ft 18kts
23-Jun-18 09:57 32.730282 -117.180401 105 23ft 15kts
23-Jun-18 09:58 32.729493 -117.177115 101 23ft 4kts
23-Jun-18 09:59 32.730286 -117.176136 283 23ft 15kts
23-Jun-18 10:00 32.738457 -117.208588 285 782ft 167kts
23-Jun-18 10:01 32.765324 -117.261944 304 2878ft 231kts
23-Jun-18 10:02 32.807901 -117.331408 306 5447ft 273kts
23-Jun-18 10:03 32.855474 -117.404861 306 8359ft 286kts
23-Jun-18 10:04 32.905150 -117.482093 306 10870ft 306kts
23-Jun-18 10:05 32.962476 -117.571212 306 12035ft 364kts
23-Jun-18 10:06 33.024776 -117.668604 306 14481ft 375kts
23-Jun-18 10:07 33.095518 -117.762627 318 16866ft 387kts
23-Jun-18 10:08 33.178962 -117.846713 318 18994ft 399kts
23-Jun-18 10:09 33.265749 -117.932127 319 20899ft 410kts
23-Jun-18 10:10 33.355526 -118.019634 319 22623ft 421kts
23-Jun-18 10:11 33.446961 -118.109152 319 24204ft 429kts
23-Jun-18 10:12 33.540402 -118.201152 319 25610ft 438kts
23-Jun-18 10:13 33.646103 -118.275168 334 26829ft 450kts
23-Jun-18 10:14 33.766942 -118.287300 21 28237ft 460kts
23-Jun-18 10:15 33.855682 -118.177378 54 28294ft 464kts
23-Jun-18 10:16 33.929196 -118.049936 52 28538ft 463kts
23-Jun-18 10:17 34.003670 -117.923499 52 28927ft 466kts
23-Jun-18 10:18 34.078438 -117.796201 52 28955ft 461kts
23-Jun-18 10:19 34.158432 -117.675594 48 28956ft 461kts
23-Jun-18 10:20 34.240195 -117.556290 48 28945ft 461kts
23-Jun-18 10:21 34.322001 -117.436155 48 28940ft 462kts
23-Jun-18 10:22 34.403630 -117.316291 48 28940ft 462kts
23-Jun-18 10:23 34.485141 -117.195832 48 28954ft 462kts
23-Jun-18 10:24 34.566736 -117.074739 48 28987ft 463kts
23-Jun-18 10:25 34.648051 -116.953626 48 28970ft 463kts
23-Jun-18 10:26 34.729707 -116.831912 48 28914ft 464kts
23-Jun-18 10:27 34.810611 -116.710310 48 28864ft 457kts
23-Jun-18 10:28 34.897841 -116.601832 35 28274ft 437kts
23-Jun-18 10:29 34.992333 -116.510965 35 26256ft 426kts
23-Jun-18 10:30 35.083875 -116.421902 35 24275ft 416kts
23-Jun-18 10:31 35.167306 -116.324379 43 22655ft 417kts
23-Jun-18 10:32 35.246831 -116.223116 43 21116ft 407kts
23-Jun-18 10:33 35.324580 -116.124736 43 19618ft 398kts
23-Jun-18 10:34 35.401181 -116.028332 43 18144ft 389kts
23-Jun-18 10:35 35.475926 -115.934097 43 16796ft 382kts
23-Jun-18 10:36 35.549402 -115.840937 44 15423ft 375kts
23-Jun-18 10:37 35.620222 -115.750625 45 14059ft 358kts
23-Jun-18 10:38 35.687681 -115.664499 46 13029ft 336kts
23-Jun-18 10:39 35.751621 -115.586819 29 12977ft 321kts
23-Jun-18 10:40 35.839531 -115.570041 0 12993ft 322kts
23-Jun-18 10:41 35.929056 -115.565858 1 12994ft 322kts
23-Jun-18 10:42 35.996392 -115.505102 76 12340ft 327kts
23-Jun-18 10:43 36.023060 -115.399579 71 11229ft 313kts
23-Jun-18 10:44 36.025896 -115.299023 97 10090ft 283kts
23-Jun-18 10:45 36.018582 -115.202814 95 8993ft 278kts
23-Jun-18 10:46 36.012241 -115.109494 95 8234ft 264kts
23-Jun-18 10:47 36.006981 -115.023469 95 7990ft 247kts
23-Jun-18 10:48 36.001991 -114.940343 96 8021ft 229kts
23-Jun-18 10:49 36.003481 -114.863529 54 7824ft 233kts
23-Jun-18 10:50 36.050645 -114.881584 294 6267ft 214kts
23-Jun-18 10:51 36.074248 -114.946622 276 4942ft 192kts
23-Jun-18 10:52 36.073781 -115.010906 267 3987ft 183kts
23-Jun-18 10:53 36.073702 -115.072040 267 3043ft 169kts
23-Jun-18 10:54 36.073682 -115.127050 268 2214ft 154kts
23-Jun-18 10:55 36.074551 -115.145300 292 2189ft 4kts
23-Jun-18 10:56 36.077126 -115.146529 353 2189ft 0kts
23-Jun-18 10:57 36.078488 -115.147108 79 2189ft 6kts
23-Jun-18 10:58 36.078234 -115.142163 91 2189ft 14kts
23-Jun-18 10:59 36.079303 -115.139052 37 2189ft 6kts
23-Jun-18 11:00 36.080007 -115.139379 324 2189ft 0kts
23-Jun-18 11:01 36.080007 -115.139379 324 2189ft 0kts
23-Jun-18 11:02 36.080007 -115.139379 324 2189ft 0kts
23-Jun-18 11:03 36.080007 -115.139379 324 2189ft 0kts
23-Jun-18 11:04 36.080007 -115.139379 324 2189ft 0kts
23-Jun-18 11:05 36.080007 -115.139379 324 2189ft 0kts
23-Jun-18 11:06 36.080007 -115.139379 324 2189ft 0kts
23-Jun-18 11:07 36.080007 -115.139379 324 2189ft 0kts
23-Jun-18 11:08 36.080007 -115.139379 324 2189ft 0kts

Navigation Log

Ident Type
Flight plan parsing failed, navigation log unavailable